sensor_id;sensor_type;location;lat;lon;timestamp;temperature;humidity
20672;DHT22;10495;50.922;4.760;2023-02-15T00:01:51;3.80;82.50
20672;DHT22;10495;50.922;4.760;2023-02-15T00:04:20;3.80;82.50
20672;DHT22;10495;50.922;4.760;2023-02-15T00:06:47;3.70;82.80
20672;DHT22;10495;50.922;4.760;2023-02-15T00:09:12;3.70;83.00
20672;DHT22;10495;50.922;4.760;2023-02-15T00:11:38;3.70;83.30
20672;DHT22;10495;50.922;4.760;2023-02-15T00:14:19;3.70;83.00
20672;DHT22;10495;50.922;4.760;2023-02-15T00:16:47;3.60;83.00
20672;DHT22;10495;50.922;4.760;2023-02-15T00:19:15;3.70;83.30
20672;DHT22;10495;50.922;4.760;2023-02-15T00:21:41;3.70;83.80
20672;DHT22;10495;50.922;4.760;2023-02-15T00:24:09;3.70;84.10
20672;DHT22;10495;50.922;4.760;2023-02-15T00:26:38;3.60;83.90
20672;DHT22;10495;50.922;4.760;2023-02-15T00:29:03;3.60;84.00
20672;DHT22;10495;50.922;4.760;2023-02-15T00:31:30;3.60;83.90
20672;DHT22;10495;50.922;4.760;2023-02-15T00:34:26;3.60;83.70
20672;DHT22;10495;50.922;4.760;2023-02-15T00:36:52;3.60;83.40
20672;DHT22;10495;50.922;4.760;2023-02-15T00:39:18;3.50;83.30
20672;DHT22;10495;50.922;4.760;2023-02-15T00:41:45;3.50;83.20
20672;DHT22;10495;50.922;4.760;2023-02-15T00:44:11;3.50;83.70
20672;DHT22;10495;50.922;4.760;2023-02-15T00:46:37;3.50;84.20
20672;DHT22;10495;50.922;4.760;2023-02-15T00:49:04;3.50;84.40
20672;DHT22;10495;50.922;4.760;2023-02-15T00:51:30;3.60;84.40
20672;DHT22;10495;50.922;4.760;2023-02-15T00:53:55;3.60;85.00
20672;DHT22;10495;50.922;4.760;2023-02-15T00:56:21;3.50;85.30
20672;DHT22;10495;50.922;4.760;2023-02-15T00:58:47;3.50;85.10
20672;DHT22;10495;50.922;4.760;2023-02-15T01:01:16;3.50;85.00
20672;DHT22;10495;50.922;4.760;2023-02-15T01:03:42;3.80;84.50
20672;DHT22;10495;50.922;4.760;2023-02-15T01:06:09;3.90;83.90
20672;DHT22;10495;50.922;4.760;2023-02-15T01:08:35;4.10;83.90
20672;DHT22;10495;50.922;4.760;2023-02-15T01:11:09;4.10;83.70
20672;DHT22;10495;50.922;4.760;2023-02-15T01:13:36;4.10;83.80
20672;DHT22;10495;50.922;4.760;2023-02-15T01:16:03;3.90;84.30
20672;DHT22;10495;50.922;4.760;2023-02-15T01:18:29;3.70;85.10
20672;DHT22;10495;50.922;4.760;2023-02-15T01:20:55;3.70;85.40
20672;DHT22;10495;50.922;4.760;2023-02-15T01:23:21;3.80;85.70
20672;DHT22;10495;50.922;4.760;2023-02-15T01:25:47;3.80;85.20
20672;DHT22;10495;50.922;4.760;2023-02-15T01:28:12;3.60;85.80
20672;DHT22;10495;50.922;4.760;2023-02-15T01:30:38;3.60;85.80
20672;DHT22;10495;50.922;4.760;2023-02-15T01:33:04;3.60;86.10
20672;DHT22;10495;50.922;4.760;2023-02-15T01:35:29;3.50;86.20
20672;DHT22;10495;50.922;4.760;2023-02-15T01:37:56;3.60;86.10
20672;DHT22;10495;50.922;4.760;2023-02-15T01:40:23;3.70;85.80
20672;DHT22;10495;50.922;4.760;2023-02-15T01:42:53;3.60;85.90
20672;DHT22;10495;50.922;4.760;2023-02-15T01:45:28;3.60;86.20
20672;DHT22;10495;50.922;4.760;2023-02-15T01:47:58;3.50;86.10
20672;DHT22;10495;50.922;4.760;2023-02-15T01:50:49;3.50;85.80
20672;DHT22;10495;50.922;4.760;2023-02-15T01:55:47;3.40;85.20
20672;DHT22;10495;50.922;4.760;2023-02-15T01:58:15;3.40;85.20
20672;DHT22;10495;50.922;4.760;2023-02-15T02:00:41;3.30;85.60
20672;DHT22;10495;50.922;4.760;2023-02-15T02:03:07;3.30;85.30
20672;DHT22;10495;50.922;4.760;2023-02-15T02:05:33;3.20;84.70
20672;DHT22;10495;50.922;4.760;2023-02-15T02:08:01;3.10;84.40
20672;DHT22;10495;50.922;4.760;2023-02-15T02:10:27;3.00;83.80
20672;DHT22;10495;50.922;4.760;2023-02-15T02:12:56;3.00;84.00
20672;DHT22;10495;50.922;4.760;2023-02-15T02:16:04;2.80;84.20
20672;DHT22;10495;50.922;4.760;2023-02-15T02:18:30;2.80;84.30
20672;DHT22;10495;50.922;4.760;2023-02-15T02:27:12;2.60;85.00
20672;DHT22;10495;50.922;4.760;2023-02-15T02:35:10;2.60;85.00
20672;DHT22;10495;50.922;4.760;2023-02-15T02:37:55;2.60;84.90
20672;DHT22;10495;50.922;4.760;2023-02-15T02:43:40;2.60;84.90
20672;DHT22;10495;50.922;4.760;2023-02-15T02:46:17;2.60;85.00
20672;DHT22;10495;50.922;4.760;2023-02-15T02:48:46;2.70;85.00
20672;DHT22;10495;50.922;4.760;2023-02-15T02:51:13;2.70;84.90
20672;DHT22;10495;50.922;4.760;2023-02-15T02:53:39;2.80;85.10
20672;DHT22;10495;50.922;4.760;2023-02-15T02:59:23;2.70;85.50
20672;DHT22;10495;50.922;4.760;2023-02-15T03:04:30;2.90;85.70
20672;DHT22;10495;50.922;4.760;2023-02-15T03:07:06;2.90;86.20
20672;DHT22;10495;50.922;4.760;2023-02-15T03:09:45;2.90;86.00
20672;DHT22;10495;50.922;4.760;2023-02-15T03:12:25;3.10;85.40
20672;DHT22;10495;50.922;4.760;2023-02-15T03:14:58;3.20;85.00
20672;DHT22;10495;50.922;4.760;2023-02-15T03:17:28;3.10;85.50
20672;DHT22;10495;50.922;4.760;2023-02-15T03:20:05;2.90;86.00
20672;DHT22;10495;50.922;4.760;2023-02-15T03:22:37;2.80;85.90
20672;DHT22;10495;50.922;4.760;2023-02-15T03:27:45;2.70;85.80
20672;DHT22;10495;50.922;4.760;2023-02-15T03:30:15;2.60;85.90
20672;DHT22;10495;50.922;4.760;2023-02-15T03:32:44;2.60;85.90
20672;DHT22;10495;50.922;4.760;2023-02-15T03:35:11;2.60;85.70
20672;DHT22;10495;50.922;4.760;2023-02-15T03:37:59;2.60;85.80
20672;DHT22;10495;50.922;4.760;2023-02-15T03:40:36;2.50;85.70
20672;DHT22;10495;50.922;4.760;2023-02-15T03:43:36;2.50;85.60
20672;DHT22;10495;50.922;4.760;2023-02-15T03:49:07;2.40;86.00
20672;DHT22;10495;50.922;4.760;2023-02-15T03:51:38;2.40;85.80
20672;DHT22;10495;50.922;4.760;2023-02-15T03:54:09;2.40;85.50
20672;DHT22;10495;50.922;4.760;2023-02-15T03:56:38;2.40;85.50
20672;DHT22;10495;50.922;4.760;2023-02-15T03:59:04;2.40;85.70
20672;DHT22;10495;50.922;4.760;2023-02-15T04:02:14;2.40;85.90
20672;DHT22;10495;50.922;4.760;2023-02-15T04:04:46;2.40;85.90
20672;DHT22;10495;50.922;4.760;2023-02-15T04:07:12;2.50;85.80
20672;DHT22;10495;50.922;4.760;2023-02-15T04:09:38;2.50;86.10
20672;DHT22;10495;50.922;4.760;2023-02-15T04:12:23;2.50;86.40
20672;DHT22;10495;50.922;4.760;2023-02-15T04:14:48;2.50;86.50
20672;DHT22;10495;50.922;4.760;2023-02-15T04:17:32;2.50;86.50
20672;DHT22;10495;50.922;4.760;2023-02-15T04:19:58;2.40;86.70
20672;DHT22;10495;50.922;4.760;2023-02-15T04:22:42;2.50;86.60
20672;DHT22;10495;50.922;4.760;2023-02-15T04:25:26;2.40;86.20
20672;DHT22;10495;50.922;4.760;2023-02-15T04:27:53;2.40;86.20
20672;DHT22;10495;50.922;4.760;2023-02-15T04:30:24;2.30;86.20
20672;DHT22;10495;50.922;4.760;2023-02-15T04:32:50;2.40;86.40
20672;DHT22;10495;50.922;4.760;2023-02-15T04:35:16;2.30;86.40
20672;DHT22;10495;50.922;4.760;2023-02-15T04:37:42;2.30;86.40
20672;DHT22;10495;50.922;4.760;2023-02-15T04:40:10;2.30;86.20
20672;DHT22;10495;50.922;4.760;2023-02-15T04:42:37;2.50;86.00
20672;DHT22;10495;50.922;4.760;2023-02-15T04:45:02;2.40;86.30
20672;DHT22;10495;50.922;4.760;2023-02-15T04:47:28;2.40;86.00
20672;DHT22;10495;50.922;4.760;2023-02-15T04:49:54;2.50;85.80
20672;DHT22;10495;50.922;4.760;2023-02-15T04:52:19;2.30;85.90
20672;DHT22;10495;50.922;4.760;2023-02-15T04:54:45;2.20;86.00
20672;DHT22;10495;50.922;4.760;2023-02-15T04:57:11;2.30;86.30
20672;DHT22;10495;50.922;4.760;2023-02-15T04:59:37;2.10;86.10
20672;DHT22;10495;50.922;4.760;2023-02-15T05:02:03;2.20;86.50
20672;DHT22;10495;50.922;4.760;2023-02-15T05:04:29;2.10;86.40
20672;DHT22;10495;50.922;4.760;2023-02-15T05:06:54;2.10;86.80
20672;DHT22;10495;50.922;4.760;2023-02-15T05:09:20;2.10;86.20
20672;DHT22;10495;50.922;4.760;2023-02-15T05:11:46;2.10;86.10
20672;DHT22;10495;50.922;4.760;2023-02-15T05:14:11;2.00;86.20
20672;DHT22;10495;50.922;4.760;2023-02-15T05:16:37;2.00;86.20
20672;DHT22;10495;50.922;4.760;2023-02-15T05:19:03;2.00;86.20
20672;DHT22;10495;50.922;4.760;2023-02-15T05:21:29;2.00;86.00
20672;DHT22;10495;50.922;4.760;2023-02-15T05:23:54;1.90;86.00
20672;DHT22;10495;50.922;4.760;2023-02-15T05:26:22;1.90;85.90
20672;DHT22;10495;50.922;4.760;2023-02-15T05:29:07;1.90;86.30
20672;DHT22;10495;50.922;4.760;2023-02-15T05:31:34;1.90;86.40
20672;DHT22;10495;50.922;4.760;2023-02-15T05:34:00;1.90;86.50
20672;DHT22;10495;50.922;4.760;2023-02-15T05:36:26;1.90;86.90
20672;DHT22;10495;50.922;4.760;2023-02-15T05:38:51;1.90;86.90
20672;DHT22;10495;50.922;4.760;2023-02-15T05:41:17;1.90;86.70
20672;DHT22;10495;50.922;4.760;2023-02-15T05:43:43;1.90;86.40
20672;DHT22;10495;50.922;4.760;2023-02-15T05:46:09;1.90;86.20
20672;DHT22;10495;50.922;4.760;2023-02-15T05:48:35;1.80;86.00
20672;DHT22;10495;50.922;4.760;2023-02-15T05:51:09;1.80;86.10
20672;DHT22;10495;50.922;4.760;2023-02-15T05:53:36;1.80;86.10
20672;DHT22;10495;50.922;4.760;2023-02-15T05:56:03;1.80;86.10
20672;DHT22;10495;50.922;4.760;2023-02-15T05:58:33;1.70;86.20
20672;DHT22;10495;50.922;4.760;2023-02-15T06:00:59;1.70;86.50
20672;DHT22;10495;50.922;4.760;2023-02-15T06:03:25;1.80;86.50
20672;DHT22;10495;50.922;4.760;2023-02-15T06:05:52;1.70;86.40
20672;DHT22;10495;50.922;4.760;2023-02-15T06:08:18;1.80;86.50
20672;DHT22;10495;50.922;4.760;2023-02-15T06:10:45;1.80;86.30
20672;DHT22;10495;50.922;4.760;2023-02-15T06:13:11;1.80;86.40
20672;DHT22;10495;50.922;4.760;2023-02-15T06:15:37;1.80;86.40
20672;DHT22;10495;50.922;4.760;2023-02-15T06:18:02;1.80;86.20
20672;DHT22;10495;50.922;4.760;2023-02-15T06:20:28;1.80;86.20
20672;DHT22;10495;50.922;4.760;2023-02-15T06:22:54;1.70;86.10
20672;DHT22;10495;50.922;4.760;2023-02-15T06:25:19;1.70;85.90
20672;DHT22;10495;50.922;4.760;2023-02-15T06:27:45;1.70;85.80
20672;DHT22;10495;50.922;4.760;2023-02-15T06:30:11;1.70;85.60
20672;DHT22;10495;50.922;4.760;2023-02-15T06:32:37;1.70;85.50
20672;DHT22;10495;50.922;4.760;2023-02-15T06:35:03;1.60;85.70
20672;DHT22;10495;50.922;4.760;2023-02-15T06:37:28;1.60;85.70
20672;DHT22;10495;50.922;4.760;2023-02-15T06:39:54;1.60;85.50
20672;DHT22;10495;50.922;4.760;2023-02-15T06:42:21;1.60;85.40
20672;DHT22;10495;50.922;4.760;2023-02-15T06:44:47;1.50;85.60
20672;DHT22;10495;50.922;4.760;2023-02-15T06:47:13;1.50;85.50
20672;DHT22;10495;50.922;4.760;2023-02-15T06:49:38;1.50;85.40
20672;DHT22;10495;50.922;4.760;2023-02-15T06:52:04;1.50;85.50
20672;DHT22;10495;50.922;4.760;2023-02-15T06:54:30;1.50;85.80
20672;DHT22;10495;50.922;4.760;2023-02-15T06:56:55;1.50;85.80
20672;DHT22;10495;50.922;4.760;2023-02-15T06:59:21;1.50;86.00
20672;DHT22;10495;50.922;4.760;2023-02-15T07:01:47;1.50;86.10
20672;DHT22;10495;50.922;4.760;2023-02-15T07:04:12;1.50;86.00
20672;DHT22;10495;50.922;4.760;2023-02-15T07:06:38;1.50;86.10
20672;DHT22;10495;50.922;4.760;2023-02-15T07:09:04;1.60;86.30
20672;DHT22;10495;50.922;4.760;2023-02-15T07:11:30;1.60;86.50
20672;DHT22;10495;50.922;4.760;2023-02-15T07:14:14;1.60;86.60
20672;DHT22;10495;50.922;4.760;2023-02-15T07:16:40;1.60;86.60
20672;DHT22;10495;50.922;4.760;2023-02-15T07:19:06;1.70;86.90
20672;DHT22;10495;50.922;4.760;2023-02-15T07:21:33;1.70;86.80
20672;DHT22;10495;50.922;4.760;2023-02-15T07:23:59;1.80;87.00
20672;DHT22;10495;50.922;4.760;2023-02-15T07:26:25;1.80;87.10
20672;DHT22;10495;50.922;4.760;2023-02-15T07:28:51;1.90;87.10
20672;DHT22;10495;50.922;4.760;2023-02-15T07:31:16;2.00;87.00
20672;DHT22;10495;50.922;4.760;2023-02-15T07:33:42;2.10;87.20
20672;DHT22;10495;50.922;4.760;2023-02-15T07:36:08;2.10;87.20
20672;DHT22;10495;50.922;4.760;2023-02-15T07:38:39;2.20;87.20
20672;DHT22;10495;50.922;4.760;2023-02-15T07:41:07;2.30;87.30
20672;DHT22;10495;50.922;4.760;2023-02-15T07:43:35;2.50;87.50
20672;DHT22;10495;50.922;4.760;2023-02-15T07:46:03;2.60;87.50
20672;DHT22;10495;50.922;4.760;2023-02-15T07:48:30;2.70;87.50
20672;DHT22;10495;50.922;4.760;2023-02-15T07:50:59;2.80;86.70
20672;DHT22;10495;50.922;4.760;2023-02-15T07:53:24;3.10;87.00
20672;DHT22;10495;50.922;4.760;2023-02-15T07:55:50;3.50;87.30
20672;DHT22;10495;50.922;4.760;2023-02-15T07:58:18;3.90;85.90
20672;DHT22;10495;50.922;4.760;2023-02-15T08:00:43;4.20;85.20
20672;DHT22;10495;50.922;4.760;2023-02-15T08:03:24;4.50;85.30
20672;DHT22;10495;50.922;4.760;2023-02-15T08:05:56;4.80;84.10
20672;DHT22;10495;50.922;4.760;2023-02-15T08:08:22;5.10;84.30
20672;DHT22;10495;50.922;4.760;2023-02-15T08:11:04;5.30;83.50
20672;DHT22;10495;50.922;4.760;2023-02-15T08:13:50;5.70;82.50
20672;DHT22;10495;50.922;4.760;2023-02-15T08:16:27;6.00;81.90
20672;DHT22;10495;50.922;4.760;2023-02-15T08:18:54;6.40;81.60
20672;DHT22;10495;50.922;4.760;2023-02-15T08:21:20;6.80;80.80
20672;DHT22;10495;50.922;4.760;2023-02-15T08:23:46;7.00;79.70
20672;DHT22;10495;50.922;4.760;2023-02-15T08:26:12;7.20;79.20
20672;DHT22;10495;50.922;4.760;2023-02-15T08:28:39;7.30;77.90
20672;DHT22;10495;50.922;4.760;2023-02-15T08:31:08;7.10;76.40
20672;DHT22;10495;50.922;4.760;2023-02-15T08:33:35;7.20;76.90
20672;DHT22;10495;50.922;4.760;2023-02-15T08:36:09;7.30;77.00
20672;DHT22;10495;50.922;4.760;2023-02-15T08:38:36;7.50;76.70
20672;DHT22;10495;50.922;4.760;2023-02-15T08:41:19;7.70;76.50
20672;DHT22;10495;50.922;4.760;2023-02-15T08:43:47;8.00;76.10
20672;DHT22;10495;50.922;4.760;2023-02-15T08:46:15;8.30;75.90
20672;DHT22;10495;50.922;4.760;2023-02-15T08:48:41;8.50;75.70
20672;DHT22;10495;50.922;4.760;2023-02-15T08:51:15;8.70;75.30
20672;DHT22;10495;50.922;4.760;2023-02-15T08:53:44;9.00;75.20
20672;DHT22;10495;50.922;4.760;2023-02-15T08:56:11;9.10;74.20
20672;DHT22;10495;50.922;4.760;2023-02-15T08:58:37;9.10;74.30
20672;DHT22;10495;50.922;4.760;2023-02-15T09:01:33;9.40;74.00
20672;DHT22;10495;50.922;4.760;2023-02-15T09:04:02;9.60;74.00
20672;DHT22;10495;50.922;4.760;2023-02-15T09:06:30;9.80;72.90
20672;DHT22;10495;50.922;4.760;2023-02-15T09:08:56;9.90;72.70
20672;DHT22;10495;50.922;4.760;2023-02-15T09:11:27;10.00;72.90
20672;DHT22;10495;50.922;4.760;2023-02-15T09:14:02;10.20;72.90
20672;DHT22;10495;50.922;4.760;2023-02-15T09:16:31;10.40;73.10
20672;DHT22;10495;50.922;4.760;2023-02-15T09:18:57;10.60;73.40
20672;DHT22;10495;50.922;4.760;2023-02-15T09:21:25;10.90;73.40
20672;DHT22;10495;50.922;4.760;2023-02-15T09:23:55;11.10;73.50
20672;DHT22;10495;50.922;4.760;2023-02-15T09:26:22;11.20;73.20
20672;DHT22;10495;50.922;4.760;2023-02-15T09:28:52;11.50;73.00
20672;DHT22;10495;50.922;4.760;2023-02-15T09:31:20;11.70;72.80
20672;DHT22;10495;50.922;4.760;2023-02-15T09:33:47;11.70;73.00
20672;DHT22;10495;50.922;4.760;2023-02-15T09:36:25;11.80;73.40
20672;DHT22;10495;50.922;4.760;2023-02-15T10:00:44;12.70;68.60
20672;DHT22;10495;50.922;4.760;2023-02-15T10:06:11;12.80;69.30
20672;DHT22;10495;50.922;4.760;2023-02-15T10:11:49;12.50;67.60
20672;DHT22;10495;50.922;4.760;2023-02-15T10:17:29;12.20;67.20
20672;DHT22;10495;50.922;4.760;2023-02-15T10:23:17;12.10;67.40
20672;DHT22;10495;50.922;4.760;2023-02-15T10:25:56;12.00;67.20
20672;DHT22;10495;50.922;4.760;2023-02-15T10:31:41;11.90;67.50
20672;DHT22;10495;50.922;4.760;2023-02-15T10:34:37;11.70;66.90
20672;DHT22;10495;50.922;4.760;2023-02-15T10:45:47;11.50;67.00
20672;DHT22;10495;50.922;4.760;2023-02-15T10:51:03;11.70;67.50
20672;DHT22;10495;50.922;4.760;2023-02-15T11:06:53;11.80;66.30
20672;DHT22;10495;50.922;4.760;2023-02-15T11:09:21;12.00;66.10
20672;DHT22;10495;50.922;4.760;2023-02-15T11:11:53;12.00;66.40
20672;DHT22;10495;50.922;4.760;2023-02-15T11:17:08;12.20;65.90
20672;DHT22;10495;50.922;4.760;2023-02-15T11:19:39;12.30;66.70
20672;DHT22;10495;50.922;4.760;2023-02-15T11:22:09;12.40;63.80
20672;DHT22;10495;50.922;4.760;2023-02-15T11:24:43;12.30;64.70
20672;DHT22;10495;50.922;4.760;2023-02-15T11:35:27;12.10;65.00
20672;DHT22;10495;50.922;4.760;2023-02-15T11:38:33;12.30;65.60
20672;DHT22;10495;50.922;4.760;2023-02-15T11:41:11;12.50;64.60
20672;DHT22;10495;50.922;4.760;2023-02-15T11:43:46;12.50;64.60
20672;DHT22;10495;50.922;4.760;2023-02-15T11:46:13;12.40;64.50
20672;DHT22;10495;50.922;4.760;2023-02-15T11:48:40;12.50;64.50
20672;DHT22;10495;50.922;4.760;2023-02-15T11:51:12;12.60;64.40
20672;DHT22;10495;50.922;4.760;2023-02-15T11:53:39;12.70;64.10
20672;DHT22;10495;50.922;4.760;2023-02-15T11:56:10;12.70;64.20
20672;DHT22;10495;50.922;4.760;2023-02-15T12:01:12;12.70;65.50
20672;DHT22;10495;50.922;4.760;2023-02-15T12:03:43;12.70;65.90
20672;DHT22;10495;50.922;4.760;2023-02-15T12:06:25;12.80;65.50
20672;DHT22;10495;50.922;4.760;2023-02-15T12:09:04;12.70;65.00
20672;DHT22;10495;50.922;4.760;2023-02-15T12:11:35;12.80;65.70
20672;DHT22;10495;50.922;4.760;2023-02-15T12:14:07;12.80;64.70
20672;DHT22;10495;50.922;4.760;2023-02-15T12:16:46;13.00;64.70
20672;DHT22;10495;50.922;4.760;2023-02-15T12:21:44;13.20;65.10
20672;DHT22;10495;50.922;4.760;2023-02-15T12:24:21;13.20;65.00
20672;DHT22;10495;50.922;4.760;2023-02-15T12:27:13;13.30;63.90
20672;DHT22;10495;50.922;4.760;2023-02-15T12:29:42;13.40;64.10
20672;DHT22;10495;50.922;4.760;2023-02-15T12:32:29;13.30;64.40
20672;DHT22;10495;50.922;4.760;2023-02-15T12:35:08;13.40;64.50
20672;DHT22;10495;50.922;4.760;2023-02-15T12:37:35;13.30;63.90
20672;DHT22;10495;50.922;4.760;2023-02-15T12:40:18;13.40;64.40
20672;DHT22;10495;50.922;4.760;2023-02-15T12:42:45;13.40;64.10
20672;DHT22;10495;50.922;4.760;2023-02-15T12:45:31;13.20;63.20
20672;DHT22;10495;50.922;4.760;2023-02-15T12:50:41;13.20;63.20
20672;DHT22;10495;50.922;4.760;2023-02-15T12:55:56;13.40;63.80
20672;DHT22;10495;50.922;4.760;2023-02-15T12:58:26;13.40;63.90
20672;DHT22;10495;50.922;4.760;2023-02-15T13:01:16;13.50;63.40
20672;DHT22;10495;50.922;4.760;2023-02-15T13:04:28;13.50;63.10
20672;DHT22;10495;50.922;4.760;2023-02-15T13:07:01;13.60;63.40
20672;DHT22;10495;50.922;4.760;2023-02-15T13:12:20;13.70;64.10
20672;DHT22;10495;50.922;4.760;2023-02-15T13:14:48;13.70;64.10
20672;DHT22;10495;50.922;4.760;2023-02-15T13:17:19;13.90;64.30
20672;DHT22;10495;50.922;4.760;2023-02-15T13:19:51;14.00;63.10
20672;DHT22;10495;50.922;4.760;2023-02-15T13:22:22;14.10;63.10
20672;DHT22;10495;50.922;4.760;2023-02-15T13:24:59;14.10;62.90
20672;DHT22;10495;50.922;4.760;2023-02-15T13:27:36;14.20;63.70
20672;DHT22;10495;50.922;4.760;2023-02-15T13:30:14;14.10;63.40
20672;DHT22;10495;50.922;4.760;2023-02-15T13:32:44;14.30;62.10
20672;DHT22;10495;50.922;4.760;2023-02-15T13:35:15;14.20;61.40
20672;DHT22;10495;50.922;4.760;2023-02-15T13:41:03;14.10;62.50
20672;DHT22;10495;50.922;4.760;2023-02-15T13:43:56;14.20;62.30
20672;DHT22;10495;50.922;4.760;2023-02-15T13:46:29;14.20;62.10
20672;DHT22;10495;50.922;4.760;2023-02-15T13:54:47;14.20;61.90
20672;DHT22;10495;50.922;4.760;2023-02-15T14:14:43;14.30;63.10
20672;DHT22;10495;50.922;4.760;2023-02-15T14:19:39;14.50;63.30
20672;DHT22;10495;50.922;4.760;2023-02-15T14:22:22;14.50;62.50
20672;DHT22;10495;50.922;4.760;2023-02-15T14:30:37;14.20;61.40
20672;DHT22;10495;50.922;4.760;2023-02-15T14:33:34;14.30;61.70
20672;DHT22;10495;50.922;4.760;2023-02-15T14:36:05;14.50;61.40
20672;DHT22;10495;50.922;4.760;2023-02-15T14:41:57;14.40;61.60
20672;DHT22;10495;50.922;4.760;2023-02-15T14:44:40;14.20;61.30
20672;DHT22;10495;50.922;4.760;2023-02-15T14:47:24;14.20;61.10
20672;DHT22;10495;50.922;4.760;2023-02-15T14:49:52;14.20;62.10
20672;DHT22;10495;50.922;4.760;2023-02-15T14:52:17;14.20;62.50
20672;DHT22;10495;50.922;4.760;2023-02-15T15:02:16;14.20;63.40
20672;DHT22;10495;50.922;4.760;2023-02-15T15:05:08;14.00;62.70
20672;DHT22;10495;50.922;4.760;2023-02-15T15:10:46;13.90;62.90
20672;DHT22;10495;50.922;4.760;2023-02-15T15:13:52;13.80;63.20
20672;DHT22;10495;50.922;4.760;2023-02-15T15:16:48;13.90;63.40
20672;DHT22;10495;50.922;4.760;2023-02-15T15:22:26;13.90;63.00
20672;DHT22;10495;50.922;4.760;2023-02-15T15:24:54;14.00;63.10
20672;DHT22;10495;50.922;4.760;2023-02-15T15:27:42;13.90;63.40
20672;DHT22;10495;50.922;4.760;2023-02-15T15:49:21;13.80;63.10
20672;DHT22;10495;50.922;4.760;2023-02-15T15:51:49;13.70;63.20
20672;DHT22;10495;50.922;4.760;2023-02-15T15:54:21;13.60;63.30
20672;DHT22;10495;50.922;4.760;2023-02-15T15:56:51;13.50;63.60
20672;DHT22;10495;50.922;4.760;2023-02-15T15:59:23;13.50;63.70
20672;DHT22;10495;50.922;4.760;2023-02-15T16:01:50;13.40;64.00
20672;DHT22;10495;50.922;4.760;2023-02-15T16:04:42;13.40;63.80
20672;DHT22;10495;50.922;4.760;2023-02-15T16:10:00;13.40;63.90
20672;DHT22;10495;50.922;4.760;2023-02-15T16:12:34;13.30;64.00
20672;DHT22;10495;50.922;4.760;2023-02-15T16:15:11;13.30;63.70
20672;DHT22;10495;50.922;4.760;2023-02-15T16:17:41;13.30;63.80
20672;DHT22;10495;50.922;4.760;2023-02-15T16:20:17;13.20;63.60
20672;DHT22;10495;50.922;4.760;2023-02-15T16:22:46;13.20;63.80
20672;DHT22;10495;50.922;4.760;2023-02-15T16:25:34;13.20;63.50
20672;DHT22;10495;50.922;4.760;2023-02-15T16:28:12;13.00;63.60
20672;DHT22;10495;50.922;4.760;2023-02-15T16:30:39;12.80;63.90
20672;DHT22;10495;50.922;4.760;2023-02-15T16:33:17;12.80;64.20
20672;DHT22;10495;50.922;4.760;2023-02-15T16:35:57;12.90;63.70
20672;DHT22;10495;50.922;4.760;2023-02-15T16:41:21;12.70;64.00
20672;DHT22;10495;50.922;4.760;2023-02-15T16:43:49;12.60;64.30
20672;DHT22;10495;50.922;4.760;2023-02-15T16:46:21;12.50;64.70
20672;DHT22;10495;50.922;4.760;2023-02-15T16:48:49;12.50;64.70
20672;DHT22;10495;50.922;4.760;2023-02-15T16:51:25;12.30;65.10
20672;DHT22;10495;50.922;4.760;2023-02-15T16:53:53;12.30;65.60
20672;DHT22;10495;50.922;4.760;2023-02-15T16:56:27;12.30;65.50
20672;DHT22;10495;50.922;4.760;2023-02-15T16:58:55;12.20;65.50
20672;DHT22;10495;50.922;4.760;2023-02-15T17:01:25;12.20;65.60
20672;DHT22;10495;50.922;4.760;2023-02-15T17:07:17;12.00;66.20
20672;DHT22;10495;50.922;4.760;2023-02-15T17:09:55;12.00;66.00
20672;DHT22;10495;50.922;4.760;2023-02-15T17:13:17;12.00;66.00
20672;DHT22;10495;50.922;4.760;2023-02-15T17:18:29;11.70;67.00
20672;DHT22;10495;50.922;4.760;2023-02-15T17:21:00;11.70;67.20
20672;DHT22;10495;50.922;4.760;2023-02-15T17:23:33;11.50;67.70
20672;DHT22;10495;50.922;4.760;2023-02-15T17:26:10;11.40;68.60
20672;DHT22;10495;50.922;4.760;2023-02-15T17:28:36;11.10;69.70
20672;DHT22;10495;50.922;4.760;2023-02-15T17:31:06;11.20;70.10
20672;DHT22;10495;50.922;4.760;2023-02-15T17:36:16;11.10;70.80
20672;DHT22;10495;50.922;4.760;2023-02-15T17:41:22;10.90;71.80
20672;DHT22;10495;50.922;4.760;2023-02-15T17:43:48;10.80;72.40
20672;DHT22;10495;50.922;4.760;2023-02-15T17:46:14;10.90;72.40
20672;DHT22;10495;50.922;4.760;2023-02-15T17:48:41;10.90;72.20
20672;DHT22;10495;50.922;4.760;2023-02-15T17:51:12;10.80;72.80
20672;DHT22;10495;50.922;4.760;2023-02-15T17:53:38;10.70;73.00
20672;DHT22;10495;50.922;4.760;2023-02-15T17:56:03;10.70;73.40
20672;DHT22;10495;50.922;4.760;2023-02-15T17:58:35;10.60;73.80
20672;DHT22;10495;50.922;4.760;2023-02-15T18:01:05;10.70;73.90
20672;DHT22;10495;50.922;4.760;2023-02-15T18:03:51;10.70;73.80
20672;DHT22;10495;50.922;4.760;2023-02-15T18:06:39;10.60;74.00
20672;DHT22;10495;50.922;4.760;2023-02-15T18:09:23;10.50;74.60
20672;DHT22;10495;50.922;4.760;2023-02-15T18:12:26;10.50;74.60
20672;DHT22;10495;50.922;4.760;2023-02-15T18:14:52;10.70;74.30
20672;DHT22;10495;50.922;4.760;2023-02-15T18:17:23;10.60;74.30
20672;DHT22;10495;50.922;4.760;2023-02-15T18:19:50;10.50;74.40
20672;DHT22;10495;50.922;4.760;2023-02-15T18:22:17;10.40;75.10
20672;DHT22;10495;50.922;4.760;2023-02-15T18:24:43;10.50;75.40
20672;DHT22;10495;50.922;4.760;2023-02-15T18:27:11;10.60;75.00
20672;DHT22;10495;50.922;4.760;2023-02-15T18:29:37;10.60;74.70
20672;DHT22;10495;50.922;4.760;2023-02-15T18:32:06;10.70;74.60
20672;DHT22;10495;50.922;4.760;2023-02-15T18:34:39;10.60;74.60
20672;DHT22;10495;50.922;4.760;2023-02-15T18:37:09;10.40;75.00
20672;DHT22;10495;50.922;4.760;2023-02-15T18:39:39;10.50;75.00
20672;DHT22;10495;50.922;4.760;2023-02-15T18:42:08;10.70;74.60
20672;DHT22;10495;50.922;4.760;2023-02-15T18:44:38;10.80;73.70
20672;DHT22;10495;50.922;4.760;2023-02-15T18:47:03;10.80;73.90
20672;DHT22;10495;50.922;4.760;2023-02-15T18:49:29;10.60;74.20
20672;DHT22;10495;50.922;4.760;2023-02-15T18:51:55;10.50;74.70
20672;DHT22;10495;50.922;4.760;2023-02-15T18:54:22;10.60;74.70
20672;DHT22;10495;50.922;4.760;2023-02-15T18:56:57;10.60;75.00
20672;DHT22;10495;50.922;4.760;2023-02-15T18:59:25;10.60;74.90
20672;DHT22;10495;50.922;4.760;2023-02-15T19:01:51;10.60;75.00
20672;DHT22;10495;50.922;4.760;2023-02-15T19:04:17;10.60;75.00
20672;DHT22;10495;50.922;4.760;2023-02-15T19:06:47;10.50;75.30
20672;DHT22;10495;50.922;4.760;2023-02-15T19:09:16;10.50;75.80
20672;DHT22;10495;50.922;4.760;2023-02-15T19:11:49;10.70;75.40
20672;DHT22;10495;50.922;4.760;2023-02-15T19:14:29;10.80;74.70
20672;DHT22;10495;50.922;4.760;2023-02-15T19:16:57;10.50;75.40
20672;DHT22;10495;50.922;4.760;2023-02-15T19:19:24;10.40;76.10
20672;DHT22;10495;50.922;4.760;2023-02-15T19:21:50;10.30;76.70
20672;DHT22;10495;50.922;4.760;2023-02-15T19:24:31;10.30;77.00
20672;DHT22;10495;50.922;4.760;2023-02-15T19:26:58;10.20;77.10
20672;DHT22;10495;50.922;4.760;2023-02-15T19:29:26;10.30;77.20